createdAt,value
2019-03-23T00:03:01.031Z,9.17
2019-03-23T00:08:06.919Z,9.32
2019-03-23T00:13:12.792Z,9.29
2019-03-23T00:18:18.760Z,9.26
2019-03-23T00:23:24.532Z,9.49
2019-03-23T00:28:30.518Z,9.43
2019-03-23T00:33:36.375Z,9.45
2019-03-23T00:38:42.160Z,9.41
2019-03-23T00:43:48.015Z,9.70
2019-03-23T00:48:53.855Z,9.66
2019-03-23T00:53:59.761Z,9.44
2019-03-23T00:59:05.741Z,9.61
2019-03-23T01:04:11.711Z,9.61
2019-03-23T01:09:17.585Z,9.54
2019-03-23T01:14:23.444Z,9.59
2019-03-23T01:19:29.422Z,9.59
2019-03-23T01:24:35.488Z,9.52
2019-03-23T01:29:41.288Z,9.32
2019-03-23T01:34:47.345Z,9.49
2019-03-23T01:39:53.129Z,9.48
2019-03-23T01:44:59.093Z,9.49
2019-03-23T01:50:07.627Z,9.59
2019-03-23T01:55:13.626Z,9.81
2019-03-23T02:00:19.423Z,9.70
2019-03-23T02:05:25.528Z,9.66
2019-03-23T02:10:31.399Z,9.83
2019-03-23T02:15:38.290Z,9.69
2019-03-23T02:20:44.165Z,9.68
2019-03-23T02:25:49.930Z,9.70
2019-03-23T02:30:55.698Z,9.60
2019-03-23T02:36:01.587Z,9.49
2019-03-23T02:41:07.550Z,9.33
2019-03-23T02:46:13.319Z,9.34
2019-03-23T02:51:19.347Z,9.27
2019-03-23T02:56:25.268Z,9.23
2019-03-23T03:01:31.076Z,9.19
2019-03-23T03:06:37.007Z,9.00
2019-03-23T03:11:42.912Z,9.06
2019-03-23T03:16:48.866Z,8.94
2019-03-23T03:21:54.623Z,8.84
2019-03-23T03:27:00.502Z,8.90
2019-03-23T03:32:06.382Z,8.77
2019-03-23T03:37:14.894Z,8.85
2019-03-23T03:42:20.770Z,8.82
2019-03-23T03:47:26.551Z,8.70
2019-03-23T03:52:32.412Z,8.79
2019-03-23T03:57:38.274Z,8.77
2019-03-23T04:02:44.070Z,8.72
2019-03-23T04:07:50.128Z,8.51
2019-03-23T04:12:56.025Z,8.56
2019-03-23T04:18:01.769Z,8.51
2019-03-23T04:23:08.558Z,8.52
2019-03-23T04:28:14.333Z,8.39
2019-03-23T04:33:20.102Z,8.31
2019-03-23T04:38:25.964Z,8.23
2019-03-23T04:43:32.966Z,8.42
2019-03-23T04:48:38.949Z,8.35
2019-03-23T04:53:44.906Z,8.32
2019-03-23T04:58:50.775Z,8.10
2019-03-23T05:03:56.755Z,8.24
2019-03-23T05:09:02.627Z,8.22
2019-03-23T05:14:08.561Z,8.26
2019-03-23T05:19:14.527Z,8.44
2019-03-23T05:24:20.544Z,7.89
2019-03-23T05:29:26.415Z,7.96
2019-03-23T05:34:32.287Z,8.15
2019-03-23T05:39:38.155Z,8.46
2019-03-23T05:44:44.046Z,8.49
2019-03-23T05:49:49.896Z,8.63
2019-03-23T05:54:56.098Z,8.57
2019-03-23T06:00:01.857Z,8.78
2019-03-23T06:05:07.835Z,8.87
2019-03-23T06:10:13.693Z,8.83
2019-03-23T06:15:19.567Z,8.93
2019-03-23T06:20:25.449Z,8.74
2019-03-23T06:25:31.306Z,8.56
2019-03-23T06:30:37.220Z,9.01
2019-03-23T06:35:44.071Z,9.03
2019-03-23T06:40:49.948Z,9.08
2019-03-23T06:45:55.716Z,9.68
2019-03-23T06:51:03.306Z,9.83
2019-03-23T06:56:08.991Z,10.05
2019-03-23T07:01:14.878Z,10.41
2019-03-23T07:06:20.839Z,9.82
2019-03-23T07:11:26.718Z,9.71
2019-03-23T07:16:32.647Z,9.52
2019-03-23T07:21:38.589Z,9.61
2019-03-23T07:26:45.479Z,10.28
2019-03-23T07:31:51.438Z,10.78
2019-03-23T07:36:57.412Z,10.46
2019-03-23T07:42:03.266Z,10.12
2019-03-23T07:47:09.344Z,9.94
2019-03-23T07:52:15.314Z,9.22
2019-03-23T07:57:21.371Z,9.58
2019-03-23T08:02:27.274Z,9.80
2019-03-23T08:07:33.287Z,9.38
2019-03-23T08:12:39.227Z,9.46
2019-03-23T08:17:47.285Z,10.17
2019-03-23T08:22:54.411Z,10.24
2019-03-23T08:28:00.320Z,10.98
2019-03-23T08:33:06.670Z,10.76
2019-03-23T08:38:12.558Z,11.41
2019-03-23T08:43:18.441Z,11.21
2019-03-23T08:48:24.323Z,11.26
2019-03-23T08:53:30.189Z,11.73
2019-03-23T08:58:35.225Z,11.91
2019-03-23T09:03:51.789Z,12.09
2019-03-23T09:08:49.059Z,12.09
2019-03-23T09:13:55.058Z,12.08
2019-03-23T09:19:02.012Z,11.38
2019-03-23T09:24:08.184Z,12.04
2019-03-23T09:29:13.957Z,11.49
2019-03-23T09:34:20.102Z,10.49
2019-03-23T09:39:25.993Z,10.59
2019-03-23T09:44:32.014Z,10.32
2019-03-23T09:49:38.036Z,10.41
2019-03-23T09:54:43.987Z,9.97
2019-03-23T09:59:50.087Z,10.09
2019-03-23T10:04:56.265Z,9.75
2019-03-23T10:10:02.057Z,9.75
2019-03-23T10:15:09.227Z,10.11
2019-03-23T10:20:15.145Z,9.82
2019-03-23T10:25:21.072Z,10.21
2019-03-23T10:30:26.957Z,10.27
2019-03-23T10:35:32.960Z,10.26
2019-03-23T10:40:38.908Z,10.06
2019-03-23T10:45:44.779Z,10.04
2019-03-23T10:50:50.749Z,10.45
2019-03-23T10:55:56.523Z,10.47
2019-03-23T11:01:02.557Z,10.31
2019-03-23T11:06:08.467Z,10.52
2019-03-23T11:11:14.360Z,10.78
2019-03-23T11:16:20.341Z,10.97
2019-03-23T11:21:26.288Z,10.65
2019-03-23T11:26:32.327Z,10.77
2019-03-23T11:31:38.262Z,10.40
2019-03-23T11:36:44.303Z,10.21
2019-03-23T11:41:50.178Z,10.51
2019-03-23T11:46:56.243Z,10.61
2019-03-23T11:52:02.124Z,10.75
2019-03-23T11:57:09.116Z,10.51
2019-03-23T12:02:14.997Z,10.38
2019-03-23T12:07:21.165Z,10.69
2019-03-23T12:12:27.148Z,10.32
2019-03-23T12:17:32.906Z,10.40
2019-03-23T12:22:38.778Z,10.56
2019-03-23T12:27:44.728Z,10.80
2019-03-23T12:32:51.031Z,11.18
2019-03-23T12:37:56.910Z,11.25
2019-03-23T12:43:02.769Z,11.58
2019-03-23T12:48:08.697Z,11.79
2019-03-23T12:53:15.614Z,11.86
2019-03-23T12:58:22.848Z,12.13
2019-03-23T13:03:29.029Z,12.66
2019-03-23T13:08:35.120Z,13.01
2019-03-23T13:13:41.088Z,12.57
2019-03-23T13:18:46.977Z,12.86
2019-03-23T13:23:52.993Z,12.71
2019-03-23T13:28:59.018Z,13.04
2019-03-23T13:34:04.993Z,13.26
2019-03-23T13:39:11.012Z,13.74
2019-03-23T13:44:17.063Z,13.72
2019-03-23T13:49:23.090Z,13.47
2019-03-23T13:54:28.974Z,13.98
2019-03-23T13:59:47.131Z,13.76
2019-03-23T14:04:53.348Z,14.62
2019-03-23T14:09:59.396Z,13.95
2019-03-23T14:15:07.630Z,14.10
2019-03-23T14:20:14.113Z,14.26
2019-03-23T14:25:20.077Z,14.23
2019-03-23T14:30:25.941Z,13.75
2019-03-23T14:35:31.811Z,13.41
2019-03-23T14:40:37.686Z,13.49
2019-03-23T14:45:43.558Z,13.28
2019-03-23T14:50:49.324Z,13.38
2019-03-23T14:55:55.307Z,13.33
2019-03-23T15:01:01.067Z,13.41
2019-03-23T15:06:07.356Z,13.06
2019-03-23T15:11:13.250Z,13.00
2019-03-23T15:16:19.199Z,12.67
2019-03-23T15:21:25.072Z,12.66
2019-03-23T15:26:31.037Z,12.81
2019-03-23T15:31:37.212Z,12.58
2019-03-23T15:36:43.188Z,12.60
2019-03-23T15:41:49.102Z,12.51
2019-03-23T15:46:55.134Z,12.63
2019-03-23T15:52:01.002Z,12.68
2019-03-23T15:57:06.922Z,12.58
2019-03-23T16:02:12.857Z,12.50
2019-03-23T16:07:18.726Z,12.31
2019-03-23T16:12:34.269Z,12.30
2019-03-23T16:17:32.139Z,12.44
2019-03-23T16:22:38.151Z,12.26
2019-03-23T16:27:44.985Z,12.20
2019-03-23T16:32:50.942Z,12.31
2019-03-23T16:37:56.905Z,12.29
2019-03-23T16:43:02.729Z,12.50
2019-03-23T16:48:08.563Z,12.29
2019-03-23T16:53:14.487Z,12.14
2019-03-23T16:58:21.334Z,11.98
2019-03-23T17:03:27.240Z,11.82
2019-03-23T17:08:33.173Z,11.68
2019-03-23T17:13:40.006Z,11.68
2019-03-23T17:18:45.884Z,11.90
2019-03-23T17:23:51.753Z,11.75
2019-03-23T17:28:57.567Z,11.60
2019-03-23T17:34:03.448Z,11.65
2019-03-23T17:39:09.419Z,11.54
2019-03-23T17:44:15.346Z,11.46
2019-03-23T17:49:21.156Z,11.47
2019-03-23T17:54:27.195Z,11.29
2019-03-23T17:59:33.005Z,11.16
2019-03-23T18:04:39.178Z,11.09
2019-03-23T18:09:45.053Z,11.04
2019-03-23T18:14:50.928Z,10.97
2019-03-23T18:19:56.904Z,10.86
2019-03-23T18:25:04.929Z,10.90
2019-03-23T18:30:25.960Z,10.76
2019-03-23T18:35:31.829Z,10.67
2019-03-23T18:40:38.051Z,10.59
2019-03-23T18:45:43.930Z,10.46
2019-03-23T18:50:50.192Z,10.32
2019-03-23T18:55:56.250Z,10.15
2019-03-23T19:01:02.925Z,10.08
2019-03-23T19:06:08.838Z,9.87
2019-03-23T19:11:15.111Z,9.75
2019-03-23T19:16:21.158Z,9.59
2019-03-23T19:21:27.115Z,9.51
2019-03-23T19:26:33.020Z,9.44
2019-03-23T19:31:38.995Z,9.38
2019-03-23T19:36:44.900Z,9.30
2019-03-23T19:41:50.929Z,9.25
2019-03-23T19:46:56.822Z,9.10
2019-03-23T19:52:02.755Z,8.99
2019-03-23T19:57:08.630Z,8.97
2019-03-23T20:02:14.502Z,8.89
2019-03-23T20:07:20.511Z,8.86
2019-03-23T20:12:26.351Z,8.70
2019-03-23T20:17:32.373Z,8.69
2019-03-23T20:22:39.266Z,8.68
2019-03-23T20:27:45.128Z,8.59
2019-03-23T20:32:50.958Z,8.45
2019-03-23T20:37:57.049Z,8.38
2019-03-23T20:43:03.039Z,8.33
2019-03-23T20:48:08.979Z,8.35
2019-03-23T20:53:16.278Z,8.30
2019-03-23T20:58:22.259Z,8.27
2019-03-23T21:03:28.125Z,8.15
2019-03-23T21:08:33.988Z,8.26
2019-03-23T21:13:39.865Z,8.26
2019-03-23T21:18:45.738Z,8.17
2019-03-23T21:23:52.163Z,8.09
2019-03-23T21:28:58.196Z,8.09
2019-03-23T21:34:04.090Z,8.10
2019-03-23T21:39:10.047Z,8.10
2019-03-23T21:44:15.930Z,8.01
2019-03-23T21:49:21.802Z,7.83
2019-03-23T21:54:27.672Z,7.93
2019-03-23T21:59:33.530Z,7.85
2019-03-23T22:04:39.300Z,7.73
2019-03-23T22:09:45.169Z,7.61
2019-03-23T22:14:52.162Z,7.71
2019-03-23T22:19:58.150Z,7.59
2019-03-23T22:25:04.326Z,7.53
2019-03-23T22:30:14.366Z,7.48
2019-03-23T22:35:20.176Z,7.45
2019-03-23T22:40:28.140Z,7.33
2019-03-23T22:45:35.702Z,7.31
2019-03-23T22:50:41.204Z,7.33
2019-03-23T22:55:47.029Z,7.27
2019-03-23T23:00:55.455Z,7.33
2019-03-23T23:06:01.628Z,7.15
2019-03-23T23:11:07.815Z,7.29
2019-03-23T23:16:13.745Z,7.31
2019-03-23T23:21:19.650Z,7.28
2019-03-23T23:26:25.421Z,7.25
2019-03-23T23:31:32.316Z,7.25
2019-03-23T23:36:38.089Z,7.35
2019-03-23T23:41:43.957Z,7.38
2019-03-23T23:46:50.966Z,7.36
2019-03-23T23:51:56.923Z,7.18
2019-03-23T23:57:02.803Z,6.90
